createdAt,value
2018-03-19T00:00:42.857Z,-3.58
2018-03-19T00:03:11.302Z,-3.61
2018-03-19T00:05:39.712Z,-3.62
2018-03-19T00:08:08.123Z,-3.65
2018-03-19T00:10:36.579Z,-3.63
2018-03-19T00:13:04.991Z,-3.69
2018-03-19T00:15:33.399Z,-3.69
2018-03-19T00:18:01.856Z,-3.74
2018-03-19T00:20:30.267Z,-3.74
2018-03-19T00:22:58.670Z,-3.75
2018-03-19T00:25:27.114Z,-3.72
2018-03-19T00:27:55.541Z,-3.74
2018-03-19T00:30:23.960Z,-3.73
2018-03-19T00:32:52.404Z,-3.76
2018-03-19T00:35:20.811Z,-3.75
2018-03-19T00:37:49.223Z,-3.79
2018-03-19T00:40:17.698Z,-3.80
2018-03-19T00:42:46.141Z,-3.85
2018-03-19T00:45:14.549Z,-3.92
2018-03-19T00:47:43.001Z,-3.94
2018-03-19T00:50:11.428Z,-3.89
2018-03-19T00:52:39.844Z,-3.96
2018-03-19T00:55:08.308Z,-3.98
2018-03-19T00:57:36.723Z,-3.96
2018-03-19T01:00:05.176Z,-4.03
2018-03-19T01:02:33.638Z,-4.03
2018-03-19T01:05:02.062Z,-4.02
2018-03-19T01:07:30.481Z,-4.02
2018-03-19T01:09:58.940Z,-4.00
2018-03-19T01:12:27.360Z,-3.99
2018-03-19T01:14:55.762Z,-3.99
2018-03-19T01:17:24.198Z,-4.06
2018-03-19T01:19:52.593Z,-4.06
2018-03-19T01:22:21.004Z,-4.06
2018-03-19T01:24:49.450Z,-4.05
2018-03-19T01:27:17.860Z,-4.09
2018-03-19T01:29:46.253Z,-4.10
2018-03-19T01:32:14.718Z,-4.13
2018-03-19T01:34:43.129Z,-4.10
2018-03-19T01:37:11.539Z,-4.18
2018-03-19T01:39:40.002Z,-4.17
2018-03-19T01:42:08.423Z,-4.17
2018-03-19T01:44:36.836Z,-4.23
2018-03-19T01:47:05.288Z,-4.26
2018-03-19T01:49:33.714Z,-4.29
2018-03-19T01:52:02.137Z,-4.28
2018-03-19T01:54:30.616Z,-4.29
2018-03-19T01:56:59.014Z,-4.30
2018-03-19T01:59:27.414Z,-4.33
2018-03-19T02:01:55.896Z,-4.33
2018-03-19T02:04:24.310Z,-4.31
2018-03-19T02:06:52.730Z,-4.35
2018-03-19T02:09:21.451Z,-4.35
2018-03-19T02:11:49.875Z,-4.33
2018-03-19T02:14:18.301Z,-4.33
2018-03-19T02:16:46.768Z,-4.34
2018-03-19T02:19:15.197Z,-4.40
2018-03-19T02:21:43.629Z,-4.39
2018-03-19T02:24:12.096Z,-4.35
2018-03-19T02:26:40.516Z,-4.39
2018-03-19T02:29:08.944Z,-4.41
2018-03-19T02:31:37.408Z,-4.39
2018-03-19T02:34:05.834Z,-4.37
2018-03-19T02:36:34.257Z,-4.41
2018-03-19T02:39:02.739Z,-4.41
2018-03-19T02:41:31.142Z,-4.44
2018-03-19T02:43:59.555Z,-4.48
2018-03-19T02:46:28.011Z,-4.50
2018-03-19T02:48:56.443Z,-4.49
2018-03-19T02:51:24.842Z,-4.51
2018-03-19T02:53:53.323Z,-4.53
2018-03-19T02:56:21.726Z,-4.58
2018-03-19T02:58:50.129Z,-4.53
2018-03-19T03:01:18.592Z,-4.60
2018-03-19T03:03:47.025Z,-4.66
2018-03-19T03:06:15.448Z,-4.63
2018-03-19T03:08:43.918Z,-4.63
2018-03-19T03:11:12.340Z,-4.60
2018-03-19T03:13:41.527Z,-4.66
2018-03-19T03:16:09.987Z,-4.64
2018-03-19T03:18:38.398Z,-4.66
2018-03-19T03:21:06.817Z,-4.72
2018-03-19T03:23:35.274Z,-4.78
2018-03-19T03:26:03.718Z,-4.79
2018-03-19T03:28:32.134Z,-4.75
2018-03-19T03:31:00.597Z,-4.82
2018-03-19T03:33:29.048Z,-4.85
2018-03-19T03:35:57.462Z,-4.80
2018-03-19T03:38:25.968Z,-4.74
2018-03-19T03:40:54.396Z,-4.75
2018-03-19T03:43:22.820Z,-4.74
2018-03-19T03:45:51.288Z,-4.76
2018-03-19T03:48:19.713Z,-4.78
2018-03-19T03:50:48.145Z,-4.79
2018-03-19T03:53:16.629Z,-4.87
2018-03-19T03:55:45.023Z,-4.91
2018-03-19T03:58:13.449Z,-4.93
2018-03-19T04:00:41.916Z,-4.95
2018-03-19T04:03:10.357Z,-4.90
2018-03-19T04:05:38.771Z,-4.87
2018-03-19T04:08:07.227Z,-4.94
2018-03-19T04:10:35.688Z,-5.01
2018-03-19T04:13:04.130Z,-5.00
2018-03-19T04:15:32.764Z,-5.03
2018-03-19T04:18:01.191Z,-5.00
2018-03-19T04:20:29.623Z,-4.98
2018-03-19T04:22:58.096Z,-5.02
2018-03-19T04:25:26.514Z,-5.08
2018-03-19T04:27:54.936Z,-5.04
2018-03-19T04:30:23.428Z,-5.13
2018-03-19T04:32:51.842Z,-5.09
2018-03-19T04:35:20.273Z,-5.14
2018-03-19T04:37:48.710Z,-5.15
2018-03-19T04:40:17.130Z,-5.14
2018-03-19T04:42:45.548Z,-5.14
2018-03-19T04:45:14.002Z,-5.16
2018-03-19T04:47:42.415Z,-5.15
2018-03-19T04:50:10.842Z,-5.24
2018-03-19T04:52:39.301Z,-5.25
2018-03-19T04:55:07.730Z,-5.29
2018-03-19T04:57:36.156Z,-5.32
2018-03-19T05:00:04.652Z,-5.34
2018-03-19T05:02:33.078Z,-5.46
2018-03-19T05:05:01.486Z,-5.45
2018-03-19T05:07:29.957Z,-5.54
2018-03-19T05:09:58.370Z,-5.60
2018-03-19T05:12:26.780Z,-5.58
2018-03-19T05:14:55.252Z,-5.70
2018-03-19T05:17:23.673Z,-5.71
2018-03-19T05:19:52.098Z,-5.77
2018-03-19T05:22:20.653Z,-5.65
2018-03-19T05:24:49.071Z,-5.65
2018-03-19T05:27:17.496Z,-5.70
2018-03-19T05:29:45.975Z,-5.65
2018-03-19T05:32:14.402Z,-5.63
2018-03-19T05:34:42.809Z,-5.62
2018-03-19T05:37:11.538Z,-5.70
2018-03-19T05:39:39.956Z,-5.70
2018-03-19T05:42:08.384Z,-5.60
2018-03-19T05:44:36.850Z,-5.61
2018-03-19T05:47:05.261Z,-5.55
2018-03-19T05:49:33.692Z,-5.48
2018-03-19T05:52:02.154Z,-5.46
2018-03-19T05:54:30.586Z,-5.47
2018-03-19T05:56:59.016Z,-5.44
2018-03-19T05:59:27.496Z,-5.35
2018-03-19T06:01:55.919Z,-5.30
2018-03-19T06:04:24.334Z,-5.21
2018-03-19T06:06:52.804Z,-5.11
2018-03-19T06:09:21.223Z,-5.07
2018-03-19T06:11:49.657Z,-5.00
2018-03-19T06:14:18.134Z,-5.03
2018-03-19T06:16:46.546Z,-5.00
2018-03-19T06:19:14.957Z,-4.97
2018-03-19T06:21:43.414Z,-5.03
2018-03-19T06:24:11.825Z,-4.97
2018-03-19T06:26:40.250Z,-4.93
2018-03-19T06:29:08.720Z,-4.93
2018-03-19T06:31:37.139Z,-4.92
2018-03-19T06:34:05.562Z,-4.86
2018-03-19T06:36:34.035Z,-4.83
2018-03-19T06:39:02.454Z,-4.75
2018-03-19T06:41:30.886Z,-4.60
2018-03-19T06:43:59.351Z,-4.47
2018-03-19T06:46:27.776Z,-4.35
2018-03-19T06:48:56.227Z,-4.29
2018-03-19T06:51:24.688Z,-4.27
2018-03-19T06:53:53.124Z,-4.21
2018-03-19T06:56:21.538Z,-4.14
2018-03-19T06:58:50.000Z,-4.01
2018-03-19T07:01:18.411Z,-3.94
2018-03-19T07:03:46.828Z,-3.96
2018-03-19T07:06:15.292Z,-3.84
2018-03-19T07:08:43.707Z,-3.87
2018-03-19T07:11:12.138Z,-3.75
2018-03-19T07:13:40.599Z,-3.63
2018-03-19T07:16:09.203Z,-3.63
2018-03-19T07:18:37.618Z,-3.52
2018-03-19T07:21:06.082Z,-3.47
2018-03-19T07:23:34.491Z,-3.41
2018-03-19T07:26:02.902Z,-3.43
2018-03-19T07:28:31.354Z,-3.31
2018-03-19T07:30:59.771Z,-3.31
2018-03-19T07:33:28.209Z,-3.20
2018-03-19T07:35:56.662Z,-3.12
2018-03-19T07:38:25.079Z,-3.20
2018-03-19T07:40:53.549Z,-3.06
2018-03-19T07:43:22.148Z,-3.03
2018-03-19T07:45:50.498Z,-2.94
2018-03-19T07:48:18.912Z,-2.87
2018-03-19T07:50:47.375Z,-2.87
2018-03-19T07:53:15.790Z,-2.85
2018-03-19T07:55:44.207Z,-2.82
2018-03-19T07:58:12.659Z,-2.83
2018-03-19T08:00:41.074Z,-2.71
2018-03-19T08:03:09.523Z,-2.54
2018-03-19T08:05:37.999Z,-2.61
2018-03-19T08:08:06.422Z,-2.65
2018-03-19T08:10:34.838Z,-2.54
2018-03-19T08:13:03.302Z,-2.55
2018-03-19T08:15:31.725Z,-2.59
2018-03-19T08:18:00.142Z,-2.62
2018-03-19T08:20:28.607Z,-2.55
2018-03-19T08:22:57.032Z,-2.51
2018-03-19T08:25:25.441Z,-2.40
2018-03-19T08:27:54.000Z,-2.47
2018-03-19T08:30:22.414Z,-2.37
2018-03-19T08:32:50.848Z,-2.20
2018-03-19T08:35:19.314Z,-2.30
2018-03-19T08:37:47.726Z,-2.22
2018-03-19T08:40:16.138Z,-2.14
2018-03-19T08:42:44.609Z,-1.84
2018-03-19T08:45:13.028Z,-1.92
2018-03-19T08:47:41.447Z,-1.78
2018-03-19T08:50:09.908Z,-1.58
2018-03-19T08:52:38.328Z,-1.69
2018-03-19T08:55:06.756Z,-1.53
2018-03-19T08:57:35.205Z,-1.42
2018-03-19T09:00:03.668Z,-1.14
2018-03-19T09:02:32.082Z,-1.17
2018-03-19T09:05:00.554Z,-1.15
2018-03-19T09:07:28.980Z,-1.19
2018-03-19T09:09:57.397Z,-1.20
2018-03-19T09:12:25.882Z,-0.98
2018-03-19T09:14:54.303Z,-0.83
2018-03-19T09:17:22.728Z,-1.02
2018-03-19T09:19:51.203Z,-0.98
2018-03-19T09:22:19.640Z,-0.86
2018-03-19T09:24:48.053Z,-0.63
2018-03-19T09:27:16.516Z,-0.35
2018-03-19T09:29:44.955Z,-0.16
2018-03-19T09:32:13.407Z,-0.23
2018-03-19T09:34:41.862Z,-0.08
2018-03-19T09:37:10.340Z,-0.20
2018-03-19T09:39:38.756Z,0.00
2018-03-19T09:42:07.220Z,0.14
2018-03-19T09:44:35.640Z,0.17
2018-03-19T09:47:04.045Z,0.16
2018-03-19T09:49:32.490Z,0.03
2018-03-19T09:52:00.894Z,0.31
2018-03-19T09:54:29.294Z,0.45
2018-03-19T09:56:57.759Z,0.61
2018-03-19T09:59:26.163Z,0.68
2018-03-19T10:01:54.585Z,0.78
2018-03-19T10:04:23.062Z,0.72
2018-03-19T10:06:51.480Z,0.63
2018-03-19T10:09:19.911Z,0.53
2018-03-19T10:11:48.390Z,0.54
2018-03-19T10:14:16.809Z,0.66
2018-03-19T10:16:45.219Z,0.75
2018-03-19T10:19:13.657Z,0.85
2018-03-19T10:21:42.111Z,0.96
2018-03-19T10:24:10.543Z,1.06
2018-03-19T10:26:39.006Z,1.01
2018-03-19T10:29:07.428Z,1.07
2018-03-19T10:31:35.835Z,1.37
2018-03-19T10:34:04.309Z,1.60
2018-03-19T10:36:32.724Z,1.57
2018-03-19T10:39:01.129Z,1.64
2018-03-19T10:41:29.585Z,1.61
2018-03-19T10:43:58.036Z,1.70
2018-03-19T10:46:26.456Z,1.93
2018-03-19T10:48:54.906Z,2.19
2018-03-19T10:51:23.310Z,2.09
2018-03-19T10:53:51.716Z,1.99
2018-03-19T10:56:20.190Z,2.05
2018-03-19T10:58:48.612Z,2.05
2018-03-19T11:01:22.745Z,1.71
2018-03-19T11:03:56.791Z,1.82
2018-03-19T11:06:30.837Z,1.60
2018-03-19T11:09:04.894Z,1.66
2018-03-19T11:11:33.345Z,1.54
2018-03-19T11:14:01.756Z,1.62
2018-03-19T11:16:30.166Z,1.97
2018-03-19T11:18:58.627Z,1.83
2018-03-19T11:21:27.034Z,1.68
2018-03-19T11:23:55.445Z,1.55
2018-03-19T11:26:23.897Z,1.63
2018-03-19T11:28:52.294Z,1.61
2018-03-19T11:31:20.698Z,1.70
2018-03-19T11:33:49.194Z,1.75
2018-03-19T11:36:17.583Z,1.57
2018-03-19T11:38:45.988Z,1.76
2018-03-19T11:41:14.441Z,2.00
2018-03-19T11:43:42.856Z,2.25
2018-03-19T11:46:11.272Z,2.33
2018-03-19T11:48:39.727Z,2.43
2018-03-19T11:51:08.122Z,2.81
2018-03-19T11:53:36.536Z,3.02
2018-03-19T11:56:05.093Z,2.93
2018-03-19T11:58:33.507Z,2.83
2018-03-19T12:01:01.898Z,3.10
2018-03-19T12:03:30.350Z,2.90
2018-03-19T12:05:58.762Z,2.78
2018-03-19T12:08:27.168Z,3.02
2018-03-19T12:10:55.618Z,3.49
2018-03-19T12:13:24.034Z,3.63
2018-03-19T12:15:52.430Z,3.70
2018-03-19T12:18:20.887Z,3.80
2018-03-19T12:20:49.286Z,3.76
2018-03-19T12:23:17.720Z,3.57
2018-03-19T12:25:46.182Z,3.39
2018-03-19T12:28:14.608Z,3.73
2018-03-19T12:30:43.022Z,3.86
2018-03-19T12:33:11.471Z,4.04
2018-03-19T12:35:39.920Z,4.33
2018-03-19T12:38:08.335Z,4.13
2018-03-19T12:40:36.796Z,4.02
2018-03-19T12:43:05.201Z,3.81
2018-03-19T12:45:33.603Z,3.66
2018-03-19T12:48:02.074Z,3.63
2018-03-19T12:50:30.498Z,3.59
2018-03-19T12:52:58.903Z,3.49
2018-03-19T12:55:27.349Z,3.47
2018-03-19T12:57:55.757Z,3.16
2018-03-19T13:00:24.169Z,3.23
2018-03-19T13:02:52.624Z,3.36
2018-03-19T13:05:21.040Z,3.58
2018-03-19T13:07:49.448Z,3.89
2018-03-19T13:10:17.903Z,4.08
2018-03-19T13:12:46.315Z,4.34
2018-03-19T13:15:14.719Z,4.39
2018-03-19T13:17:43.206Z,4.31
2018-03-19T13:20:11.615Z,4.30
2018-03-19T13:22:40.013Z,4.35
2018-03-19T13:25:08.454Z,4.56
2018-03-19T13:27:36.864Z,4.87
2018-03-19T13:30:05.301Z,4.81
2018-03-19T13:32:33.748Z,5.03
2018-03-19T13:35:02.152Z,5.00
2018-03-19T13:37:30.560Z,5.05
2018-03-19T13:39:59.021Z,5.22
2018-03-19T13:42:27.426Z,5.48
2018-03-19T13:44:56.772Z,5.49
2018-03-19T13:47:25.211Z,5.72
2018-03-19T13:49:53.606Z,5.90
2018-03-19T13:52:22.023Z,5.93
2018-03-19T13:54:50.467Z,5.78
2018-03-19T13:57:18.854Z,5.61
2018-03-19T13:59:47.292Z,5.62
2018-03-19T14:02:15.730Z,5.78
2018-03-19T14:04:44.134Z,6.07
2018-03-19T14:07:12.570Z,6.08
2018-03-19T14:09:41.007Z,5.86
2018-03-19T14:12:09.398Z,5.81
2018-03-19T14:14:37.807Z,5.94
2018-03-19T14:17:06.334Z,5.73
2018-03-19T14:19:34.710Z,5.79
2018-03-19T14:22:03.139Z,5.56
2018-03-19T14:24:31.594Z,5.49
2018-03-19T14:27:00.000Z,5.49
2018-03-19T14:29:28.398Z,5.70
2018-03-19T14:31:56.838Z,5.73
2018-03-19T14:34:25.243Z,5.61
2018-03-19T14:36:53.649Z,5.56
2018-03-19T14:39:22.082Z,5.46
2018-03-19T14:41:50.482Z,5.44
2018-03-19T14:44:18.876Z,5.37
2018-03-19T14:46:47.310Z,5.06
2018-03-19T14:49:15.724Z,4.90
2018-03-19T14:51:44.904Z,4.79
2018-03-19T14:54:13.355Z,4.76
2018-03-19T14:56:41.746Z,4.82
2018-03-19T14:59:10.151Z,4.63
2018-03-19T15:01:38.616Z,4.62
2018-03-19T15:04:07.021Z,4.44
2018-03-19T15:06:35.436Z,4.31
2018-03-19T15:09:03.948Z,4.31
2018-03-19T15:11:32.353Z,4.29
2018-03-19T15:14:00.746Z,4.17
2018-03-19T15:16:29.396Z,4.11
2018-03-19T15:18:57.803Z,3.93
2018-03-19T15:21:26.193Z,3.95
2018-03-19T15:23:54.625Z,3.87
2018-03-19T15:26:23.044Z,3.82
2018-03-19T15:28:51.459Z,3.77
2018-03-19T15:31:19.919Z,3.64
2018-03-19T15:33:48.321Z,3.64
2018-03-19T15:36:16.718Z,3.68
2018-03-19T15:38:45.180Z,3.56
2018-03-19T15:41:13.596Z,3.42
2018-03-19T15:43:41.995Z,3.31
2018-03-19T15:46:10.444Z,3.29
2018-03-19T15:48:38.842Z,3.15
2018-03-19T15:51:07.234Z,3.13
2018-03-19T15:53:35.701Z,3.05
2018-03-19T15:56:04.138Z,2.99
2018-03-19T15:58:32.540Z,2.95
2018-03-19T16:01:01.198Z,2.94
2018-03-19T16:03:29.595Z,2.71
2018-03-19T16:05:57.999Z,2.72
2018-03-19T16:08:26.430Z,2.68
2018-03-19T16:10:54.860Z,2.75
2018-03-19T16:13:23.259Z,2.73
2018-03-19T16:15:51.707Z,2.68
2018-03-19T16:18:20.111Z,2.71
2018-03-19T16:20:48.525Z,2.68
2018-03-19T16:23:16.991Z,2.61
2018-03-19T16:25:45.401Z,2.62
2018-03-19T16:28:13.802Z,2.60
2018-03-19T16:30:42.252Z,2.57
2018-03-19T16:33:10.668Z,2.44
2018-03-19T16:35:39.074Z,2.45
2018-03-19T16:38:07.526Z,2.46
2018-03-19T16:40:35.935Z,2.40
2018-03-19T16:43:04.338Z,2.45
2018-03-19T16:45:33.128Z,2.38
2018-03-19T16:48:01.566Z,2.31
2018-03-19T16:50:29.954Z,2.31
2018-03-19T16:52:58.391Z,2.28
2018-03-19T16:55:26.782Z,2.19
2018-03-19T16:57:55.173Z,2.17
2018-03-19T17:00:23.619Z,2.10
2018-03-19T17:02:52.030Z,2.08
2018-03-19T17:05:20.434Z,2.02
2018-03-19T17:07:49.077Z,2.00
2018-03-19T17:10:17.468Z,1.99
2018-03-19T17:12:45.906Z,1.91
2018-03-19T17:15:14.355Z,1.88
2018-03-19T17:17:42.750Z,1.85
2018-03-19T17:20:11.146Z,1.78
2018-03-19T17:22:39.605Z,1.77
2018-03-19T17:25:08.031Z,1.73
2018-03-19T17:27:36.448Z,1.68
2018-03-19T17:30:04.916Z,1.59
2018-03-19T17:32:33.328Z,1.55
2018-03-19T17:35:01.769Z,1.52
2018-03-19T17:37:30.201Z,1.48
2018-03-19T17:39:58.594Z,1.43
2018-03-19T17:42:26.989Z,1.39
2018-03-19T17:44:55.430Z,1.36
2018-03-19T17:47:23.839Z,1.34
2018-03-19T17:49:52.234Z,1.27
2018-03-19T17:52:20.691Z,1.22
2018-03-19T17:54:49.099Z,1.12
2018-03-19T17:57:17.508Z,1.16
2018-03-19T17:59:45.968Z,1.06
2018-03-19T18:02:14.374Z,0.95
2018-03-19T18:04:42.766Z,0.87
2018-03-19T18:07:11.313Z,0.98
2018-03-19T18:09:39.702Z,1.00
2018-03-19T18:12:08.113Z,0.94
2018-03-19T18:14:36.551Z,0.84
2018-03-19T18:17:04.954Z,0.77
2018-03-19T18:19:33.369Z,0.72
2018-03-19T18:22:01.824Z,0.65
2018-03-19T18:24:30.229Z,0.50
2018-03-19T18:26:58.649Z,0.52
2018-03-19T18:29:27.258Z,0.50
2018-03-19T18:31:55.680Z,0.54
2018-03-19T18:34:24.090Z,0.58
2018-03-19T18:36:52.575Z,0.53
2018-03-19T18:39:20.980Z,0.45
2018-03-19T18:41:49.397Z,0.41
2018-03-19T18:44:17.877Z,0.36
2018-03-19T18:46:46.301Z,0.35
2018-03-19T18:49:14.708Z,0.32
2018-03-19T18:51:43.161Z,0.24
2018-03-19T18:54:11.572Z,0.18
2018-03-19T18:56:39.996Z,0.15
2018-03-19T18:59:08.452Z,0.12
2018-03-19T19:01:36.856Z,0.05
2018-03-19T19:04:05.296Z,0.03
2018-03-19T19:06:33.740Z,0.00
2018-03-19T19:09:02.154Z,-0.04
2018-03-19T19:11:30.564Z,-0.12
2018-03-19T19:13:59.064Z,-0.20
2018-03-19T19:16:27.473Z,-0.34
2018-03-19T19:18:55.891Z,-0.37
2018-03-19T19:21:24.392Z,-0.52
2018-03-19T19:23:52.814Z,-0.55
2018-03-19T19:26:21.245Z,-0.60
2018-03-19T19:28:49.729Z,-0.69
2018-03-19T19:31:18.152Z,-0.72
2018-03-19T19:33:46.584Z,-0.64
2018-03-19T19:36:15.048Z,-0.66
2018-03-19T19:38:43.472Z,-0.73
2018-03-19T19:41:11.881Z,-0.72
2018-03-19T19:43:40.344Z,-0.70
2018-03-19T19:46:08.785Z,-0.64
2018-03-19T19:48:37.210Z,-0.66
2018-03-19T19:51:05.941Z,-0.69
2018-03-19T19:53:34.358Z,-0.82
2018-03-19T19:56:02.774Z,-0.80
2018-03-19T19:58:31.226Z,-0.91
2018-03-19T20:00:59.652Z,-0.90
2018-03-19T20:03:28.059Z,-0.90
2018-03-19T20:05:56.513Z,-0.86
2018-03-19T20:08:24.931Z,-0.90
2018-03-19T20:10:53.369Z,-0.84
2018-03-19T20:13:21.850Z,-0.86
2018-03-19T20:15:50.262Z,-0.87
2018-03-19T20:18:18.681Z,-0.91
2018-03-19T20:20:47.156Z,-1.04
2018-03-19T20:23:15.566Z,-1.18
2018-03-19T20:25:43.984Z,-1.29
2018-03-19T20:28:12.455Z,-1.36
2018-03-19T20:30:40.870Z,-1.38
2018-03-19T20:33:09.291Z,-1.45
2018-03-19T20:35:37.743Z,-1.37
2018-03-19T20:38:06.150Z,-1.28
2018-03-19T20:40:34.558Z,-1.31
2018-03-19T20:43:03.024Z,-1.29
2018-03-19T20:45:31.439Z,-1.32
2018-03-19T20:47:59.842Z,-1.32
2018-03-19T20:50:28.303Z,-1.31
2018-03-19T20:52:56.717Z,-1.39
2018-03-19T20:55:25.134Z,-1.50
2018-03-19T20:57:53.596Z,-1.55
2018-03-19T21:00:22.006Z,-1.59
2018-03-19T21:02:50.478Z,-1.51
2018-03-19T21:05:18.924Z,-1.53
2018-03-19T21:07:47.345Z,-1.58
2018-03-19T21:10:15.767Z,-1.68
2018-03-19T21:12:44.227Z,-1.77
2018-03-19T21:15:12.639Z,-1.84
2018-03-19T21:17:41.062Z,-1.86
2018-03-19T21:20:09.515Z,-1.74
2018-03-19T21:22:37.917Z,-1.80
2018-03-19T21:25:06.338Z,-1.83
2018-03-19T21:27:34.806Z,-1.86
2018-03-19T21:30:03.252Z,-1.93
2018-03-19T21:32:31.659Z,-1.99
2018-03-19T21:35:00.144Z,-2.07
2018-03-19T21:37:28.554Z,-2.05
2018-03-19T21:39:56.972Z,-2.02
2018-03-19T21:42:25.423Z,-2.09
2018-03-19T21:44:53.830Z,-2.22
2018-03-19T21:47:22.257Z,-2.35
2018-03-19T21:49:50.730Z,-2.40
2018-03-19T21:52:19.159Z,-2.36
2018-03-19T21:54:47.575Z,-2.49
2018-03-19T21:57:16.036Z,-2.56
2018-03-19T21:59:44.461Z,-2.40
2018-03-19T22:02:12.884Z,-2.46
2018-03-19T22:04:41.353Z,-2.51
2018-03-19T22:07:09.762Z,-2.51
2018-03-19T22:09:38.170Z,-2.62
2018-03-19T22:12:06.628Z,-2.66
2018-03-19T22:14:35.057Z,-2.74
2018-03-19T22:17:03.470Z,-2.72
2018-03-19T22:19:31.923Z,-2.75
2018-03-19T22:22:00.347Z,-2.77
2018-03-19T22:24:28.759Z,-2.81
2018-03-19T22:26:57.234Z,-2.81
2018-03-19T22:29:25.642Z,-2.74
2018-03-19T22:31:54.038Z,-2.70
2018-03-19T22:34:22.680Z,-2.65
2018-03-19T22:36:51.104Z,-2.61
2018-03-19T22:39:19.545Z,-2.60
2018-03-19T22:41:47.990Z,-2.62
2018-03-19T22:44:16.399Z,-2.65
2018-03-19T22:46:44.802Z,-2.61
2018-03-19T22:49:13.251Z,-2.50
2018-03-19T22:51:41.668Z,-2.48
2018-03-19T22:54:10.074Z,-2.55
2018-03-19T22:56:38.534Z,-2.54
2018-03-19T22:59:06.952Z,-2.63
2018-03-19T23:01:35.368Z,-2.69
2018-03-19T23:04:03.840Z,-2.76
2018-03-19T23:06:32.255Z,-2.80
2018-03-19T23:09:00.680Z,-2.71
2018-03-19T23:11:29.162Z,-2.70
2018-03-19T23:13:57.573Z,-2.74
2018-03-19T23:16:25.997Z,-2.80
2018-03-19T23:18:54.461Z,-2.86
2018-03-19T23:21:22.870Z,-2.81
2018-03-19T23:23:51.278Z,-2.85
2018-03-19T23:26:19.732Z,-2.90
2018-03-19T23:28:48.156Z,-2.95
2018-03-19T23:31:16.566Z,-2.97
2018-03-19T23:33:45.006Z,-3.02
2018-03-19T23:36:13.410Z,-3.05
2018-03-19T23:38:41.835Z,-3.08
2018-03-19T23:41:10.283Z,-3.04
2018-03-19T23:43:38.697Z,-3.03
2018-03-19T23:46:07.106Z,-3.08
2018-03-19T23:48:35.564Z,-3.08
2018-03-19T23:51:03.980Z,-3.04
2018-03-19T23:53:32.383Z,-3.12
2018-03-19T23:56:00.835Z,-3.04
2018-03-19T23:58:29.239Z,-3.15
